Latest Weather Observations for West Roebuck

IDW60801

Issued at 3:02 am WST Monday 30 March 2015 (issued every 30 minutes, with the page automatically refreshed every 10 minutes)

About weather observations | Map of weather stations | Latest weather observations for WA | Other Formats
Station Details ID: 003096 Name: WEST ROEBUCK Lat: -17.90 Lon: 122.31 Height: 32.0 m
Data from the previous 72 hours. | See also: Recent months for locations in Western Australia
Date/Time
WST
Temp
°C
App
Temp
°C
Dew
Point
Rel
Hum
%
Delta-T
°C
Wind Press
QNH
hPa
Press
MSL
hPa
Rain
since 9 am
mm
Dir
 
Spd
km/h
Gust
km/h
Spd
kts
Gust
kts
30/03:00am 26.0 - - - - WNW 6 7 3 4 - - 0.0
30/02:30am 25.8 - - - - NW 9 11 5 6 - - 0.0
30/02:00am 26.1 - - - - SSE 6 9 3 5 - - 0.0
30/01:30am 25.9 - - - - CALM 0 0 0 0 - - 0.0
30/01:00am 26.0 - - - - CALM 0 9 0 5 - - 0.0
30/12:30am 25.9 - - - - NW 9 9 5 5 - - 0.0
30/12:00am 25.9 - - - - NW 6 9 3 5 - - 0.0
 
Date/Time
WST
Temp
°C
App
Temp
°C
Dew
Point
Rel
Hum
%
Delta-T
°C
Wind Press
QNH
hPa
Press
MSL
hPa
Rain
since 9 am
mm
Dir
 
Spd
km/h
Gust
km/h
Spd
kts
Gust
kts
29/11:30pm 25.9 - - - - NW 6 7 3 4 - - 0.0
29/11:00pm 26.0 - - - - NW 7 9 4 5 - - 0.0
29/10:30pm 25.8 - - - - NW 9 11 5 6 - - 0.0
29/10:00pm 26.0 - - - - WNW 6 7 3 4 - - 0.0
29/09:30pm 26.0 - - - - WNW 9 11 5 6 - - 0.0
29/09:00pm 26.0 - - - - NW 7 9 4 5 - - 0.0
29/08:30pm 25.9 - - - - WNW 7 7 4 4 - - 0.0
29/08:00pm 25.7 - - - - WNW 6 7 3 4 - - 0.0
29/07:30pm 25.9 - - - - CALM 0 0 0 0 - - 0.0
29/07:00pm 26.2 - - - - NNW 6 7 3 4 - - 0.0
29/06:30pm 26.5 - - - - NNW 7 9 4 5 - - 0.0
29/06:00pm 27.1 - - - - NNW 7 13 4 7 - - 0.0
29/05:30pm 28.3 - - - - NW 17 35 9 19 - - 0.0
29/05:00pm 30.4 - - - - NE 6 9 3 5 - - 0.0
29/04:30pm 31.0 - - - - ENE 11 17 6 9 - - 0.0
29/04:00pm 31.2 - - - - NE 11 17 6 9 - - 0.0
29/03:30pm 31.5 - - - - ENE 11 17 6 9 - - 0.0
29/03:00pm 31.4 - - - - NE 9 15 5 8 - - 0.0
29/02:30pm 31.6 - - - - NE 15 20 8 11 - - 0.0
29/02:00pm 32.2 - - - - NE 15 24 8 13 - - 0.0
29/01:30pm 31.9 - - - - NE 15 22 8 12 - - 0.0
29/01:00pm 32.2 - - - - NE 17 28 9 15 - - 0.0
29/12:30pm 32.2 - - - - NNE 13 20 7 11 - - 0.0
29/12:00pm 32.4 - - - - NE 17 24 9 13 - - 0.0
29/11:30am 31.3 - - - - NE 15 24 8 13 - - 0.0
29/11:00am 30.6 - - - - NE 17 24 9 13 - - 0.0
29/10:30am 30.0 - - - - NE 17 24 9 13 - - 0.0
29/10:00am 29.2 - - - - NE 17 24 9 13 - - 0.0
29/09:30am 28.8 - - - - ENE 15 24 8 13 - - 0.0
29/09:00am 28.0 - - - - ENE 15 22 8 12 - - 1.2
29/08:30am 26.9 - - - - ENE 13 20 7 11 - - 1.2
29/08:00am 26.1 - - - - ENE 17 24 9 13 - - 1.2
29/07:30am 25.6 - - - - ENE 15 20 8 11 - - 1.2
29/07:00am 24.9 - - - - E 11 17 6 9 - - 1.2
29/06:30am 24.2 - - - - ENE 13 20 7 11 - - 1.2
29/06:00am 23.8 - - - - E 13 19 7 10 - - 1.2
29/05:30am 23.6 - - - - E 11 17 6 9 - - 1.2
29/05:00am 23.6 - - - - E 11 17 6 9 - - 1.2
29/04:30am 23.8 - - - - E 13 19 7 10 - - 1.2
29/04:00am 23.8 - - - - E 11 17 6 9 - - 1.2
29/03:30am 23.7 - - - - E 9 11 5 6 - - 1.2
29/03:00am 23.7 - - - - ENE 9 15 5 8 - - 1.2
29/02:30am 23.8 - - - - E 9 17 5 9 - - 1.2
29/02:00am 23.8 - - - - ENE 11 17 6 9 - - 1.2
29/01:30am 23.6 - - - - ENE 13 20 7 11 - - 1.2
29/01:00am 23.5 - - - - E 13 19 7 10 - - 1.2
29/12:30am 23.5 - - - - E 13 20 7 11 - - 1.2
29/12:00am 23.5 - - - - E 13 24 7 13 - - 1.2
 
Date/Time
WST
Temp
°C
App
Temp
°C
Dew
Point
Rel
Hum
%
Delta-T
°C
Wind Press
QNH
hPa
Press
MSL
hPa
Rain
since 9 am
mm
Dir
 
Spd
km/h
Gust
km/h
Spd
kts
Gust
kts
28/11:30pm 23.6 - - - - E 15 24 8 13 - - 1.2
28/11:00pm 23.5 - - - - E 19 28 10 15 - - 1.2
28/10:30pm 23.4 - - - - E 17 24 9 13 - - 1.2
28/10:00pm 23.5 - - - - E 15 22 8 12 - - 1.0
28/09:30pm 23.7 - - - - E 19 28 10 15 - - 0.4
28/09:00pm 24.8 - - - - ENE 22 33 12 18 - - 0.2
28/08:30pm 25.8 - - - - NE 28 44 15 24 - - 0.2
28/08:29pm 25.9 - - - - NE 28 43 15 23 - - 0.2
28/08:00pm 26.7 - - - - NE 17 24 9 13 - - 0.2
28/07:30pm 27.2 - - - - NNE 13 17 7 9 - - 0.2
28/07:00pm 27.6 - - - - NE 13 19 7 10 - - 0.2
28/06:30pm 28.2 - - - - NE 15 24 8 13 - - 0.2
28/06:00pm 28.6 - - - - NE 17 28 9 15 - - 0.2
28/05:30pm 30.8 - - - - NE 15 22 8 12 - - 0.2
28/05:00pm 31.6 - - - - NE 15 24 8 13 - - 0.2
28/04:30pm 32.4 - - - - NE 19 28 10 15 - - 0.2
28/04:00pm 32.9 - - - - NE 17 24 9 13 - - 0.2
28/03:30pm 32.9 - - - - NE 20 30 11 16 - - 0.2
28/03:00pm 33.0 - - - - NE 20 28 11 15 - - 0.2
28/02:30pm 33.9 - - - - NE 17 24 9 13 - - 0.2
28/02:00pm 32.7 - - - - NNE 13 22 7 12 - - 0.2
28/01:30pm 28.4 - - - - NNE 22 35 12 19 - - 0.2
28/01:00pm 32.8 - - - - NE 15 24 8 13 - - 0.2
28/12:30pm 32.4 - - - - NE 15 28 8 15 - - 0.2
28/12:00pm 33.0 - - - - NE 19 28 10 15 - - 0.2
28/11:30am 32.9 - - - - NE 20 33 11 18 - - 0.2
28/11:00am 33.8 - - - - ENE 22 33 12 18 - - 0.2
28/10:30am 33.0 - - - - NE 20 32 11 17 - - 0.2
28/10:00am 32.8 - - - - NE 19 28 10 15 - - 0.2
28/09:30am 32.1 - - - - ENE 17 28 9 15 - - 0.0
28/09:00am 31.2 - - - - ENE 15 24 8 13 - - 0.2
28/08:30am 29.8 - - - - ENE 17 28 9 15 - - 0.2
28/08:00am 29.1 - - - - E 13 20 7 11 - - 0.2
28/07:30am 27.3 - - - - E 9 17 5 9 - - 0.2
28/07:00am 25.7 - - - - SE 6 7 3 4 - - 0.2
28/06:30am 25.0 - - - - E 2 6 1 3 - - 0.2
28/06:00am 24.8 - - - - SE 6 7 3 4 - - 0.2
28/05:30am 24.8 - - - - CALM 0 0 0 0 - - 0.2
28/05:00am 24.9 - - - - ESE 4 9 2 5 - - 0.2
28/04:30am 25.0 - - - - ENE 7 9 4 5 - - 0.2
28/04:00am 25.3 - - - - E 7 9 4 5 - - 0.2
28/03:30am 25.3 - - - - ENE 9 11 5 6 - - 0.2
28/03:00am 24.8 - - - - NE 9 9 5 5 - - 0.2
28/02:30am 24.8 - - - - NE 2 7 1 4 - - 0.2
28/02:00am 24.3 - - - - NNE 7 9 4 5 - - 0.2
28/01:30am 24.6 - - - - NNE 17 24 9 13 - - 0.0
28/01:00am 24.9 - - - - NNE 22 37 12 20 - - 0.0
28/12:30am 27.2 - - - - E 9 11 5 6 - - 0.0
28/12:00am 27.9 - - - - CALM 0 0 0 0 - - 0.0
 
Date/Time
WST
Temp
°C
App
Temp
°C
Dew
Point
Rel
Hum
%
Delta-T
°C
Wind Press
QNH
hPa
Press
MSL
hPa
Rain
since 9 am
mm
Dir
 
Spd
km/h
Gust
km/h
Spd
kts
Gust
kts
27/11:30pm 28.1 - - - - W 4 11 2 6 - - 0.0
27/11:00pm 28.3 - - - - WNW 7 13 4 7 - - 0.0
27/10:30pm 28.7 - - - - NW 7 11 4 6 - - 0.0
27/10:00pm 28.8 - - - - NW 9 11 5 6 - - 0.0
27/09:30pm 28.8 - - - - WNW 9 13 5 7 - - 0.0
27/09:00pm 28.5 - - - - WNW 9 9 5 5 - - 0.0
27/08:30pm 28.8 - - - - NW 9 11 5 6 - - 0.0
27/08:00pm 29.3 - - - - NNW 9 11 5 6 - - 0.0
27/07:30pm 29.6 - - - - NNW 11 13 6 7 - - 0.0
27/07:00pm 29.8 - - - - NNW 9 13 5 7 - - 0.0
27/06:30pm 30.3 - - - - NW 11 17 6 9 - - 0.0
27/06:00pm 31.1 - - - - NW 13 17 7 9 - - 0.0
27/05:30pm 32.0 - - - - NNE 7 13 4 7 - - 0.0
27/05:00pm 33.4 - - - - E 7 11 4 6 - - 0.0
27/04:30pm 34.6 - - - - E 9 13 5 7 - - 0.0
27/04:00pm 34.9 - - - - ENE 11 17 6 9 - - 0.0
27/03:30pm 35.0 - - - - NE 13 22 7 12 - - 0.0
27/03:00pm 35.3 - - - - ENE 17 24 9 13 - - 0.0
27/02:30pm 36.2 - - - - NE 19 30 10 16 - - 0.0
27/02:00pm 36.6 - - - - ENE 17 26 9 14 - - 0.0
27/01:30pm 36.3 - - - - NE 17 26 9 14 - - 0.0
27/01:00pm 36.3 - - - - ENE 19 33 10 18 - - 0.0
27/12:30pm 35.6 - - - - ENE 19 32 10 17 - - 0.0
27/12:00pm 35.7 - - - - ENE 19 28 10 15 - - 0.0
27/11:30am 35.3 - - - - ENE 19 28 10 15 - - 0.0
27/11:00am 35.1 - - - - E 22 33 12 18 - - 0.0
27/10:30am 34.9 - - - - ENE 20 33 11 18 - - 0.0
27/10:00am 34.1 - - - - ENE 22 37 12 20 - - 0.0
27/09:30am 33.8 - - - - ENE 20 30 11 16 - - 0.0
27/09:00am 33.0 - - - - E 19 32 10 17 - - 0.0
27/08:30am 31.9 - - - - ENE 15 20 8 11 - - 0.0
27/08:00am 30.4 - - - - ENE 11 20 6 11 - - 0.0
27/07:30am 28.8 - - - - ENE 9 15 5 8 - - 0.0
27/07:00am 26.8 - - - - E 9 13 5 7 - - 0.0
27/06:30am 24.2 - - - - ENE 9 15 5 8 - - 0.0
27/06:00am 22.9 - - - - E 9 11 5 6 - - 0.0
27/05:30am 23.1 - - - - ENE 7 9 4 5 - - 0.0
27/05:00am 23.5 - - - - E 9 11 5 6 - - 0.0
27/04:30am 24.3 - - - - ENE 9 11 5 6 - - 0.0
27/04:00am 24.1 - - - - ENE 9 11 5 6 - - 0.0
27/03:30am 23.6 - - - - ENE 7 9 4 5 - - 0.0

Other Formats:

Comma delimited format used in spreadsheet applications
http://www.bom.gov.au/fwo/IDW60801/IDW60801.95204.axf

JavaScript Object Notation format (JSON) in row-major order
http://www.bom.gov.au/fwo/IDW60801/IDW60801.95204.json